Time;durP1;ratioP1;P1;durP2;ratioP2;P2;SDS_P1;SDS_P2;PMS_P1;PMS_P2;Temp;Humidity;BMP_temperature;BMP_pressure;BME280_temperature;BME280_humidity;BME280_pressure;Samples;Min_cycle;Max_cycle;Signal;HPM_P1;HPM_P2
2023/12/25 00:01:11;;;;;;;4.75;1.17;;;;;;;8.21;93.85;99233.78;4935477;29;20056;-73
2023/12/25 00:03:38;;;;;;;3.47;0.80;;;;;;;8.20;93.63;99247.47;4935706;29;20048;-72
2023/12/25 00:06:16;;;;;;;3.03;0.70;;;;;;;8.13;94.00;99261.63;4935414;29;20056;-73
2023/12/25 00:08:43;;;;;;;2.85;0.63;;;;;;;8.06;94.68;99259.69;4935578;29;20050;-72
2023/12/25 00:11:11;;;;;;;4.72;0.70;;;;;;;8.13;93.97;99258.06;4935035;29;20584;-73
2023/12/25 00:13:38;;;;;;;5.38;0.90;;;;;;;8.13;93.38;99248.09;4935044;29;20051;-73
2023/12/25 00:16:05;;;;;;;4.03;0.90;;;;;;;8.15;93.18;99245.25;4935126;29;20098;-74
2023/12/25 00:18:31;;;;;;;7.82;1.02;;;;;;;8.11;93.29;99249.25;4935318;29;20130;-74
2023/12/25 00:20:58;;;;;;;9.45;0.70;;;;;;;8.07;93.63;99250.56;4935059;29;20083;-74
2023/12/25 00:23:25;;;;;;;5.43;1.20;;;;;;;8.06;93.17;99252.44;4935206;29;20054;-74
2023/12/25 00:25:51;;;;;;;7.38;0.93;;;;;;;8.03;93.98;99252.75;4935214;29;20055;-74
2023/12/25 00:28:18;;;;;;;4.68;1.05;;;;;;;8.01;93.59;99260.13;4935202;29;20052;-74
2023/12/25 00:30:44;;;;;;;5.57;1.13;;;;;;;7.93;94.22;99246.56;4935190;29;20058;-74
2023/12/25 00:33:13;;;;;;;6.80;1.98;;;;;;;7.97;93.48;99247.97;4935437;29;20501;-75
2023/12/25 00:35:39;;;;;;;4.03;1.15;;;;;;;7.97;93.91;99256.06;4935298;29;20056;-75
2023/12/25 00:38:06;;;;;;;5.13;1.08;;;;;;;8.05;93.19;99250.75;4918097;29;20060;-75
2023/12/25 00:40:33;;;;;;;7.78;1.25;;;;;;;8.04;93.37;99254.44;4935014;29;20048;-75
2023/12/25 00:42:59;;;;;;;9.10;1.33;;;;;;;8.06;93.41;99252.44;4934931;29;20127;-75
2023/12/25 00:45:26;;;;;;;8.63;1.60;;;;;;;8.12;92.73;99257.22;4935193;29;20111;-75
2023/12/25 00:47:52;;;;;;;6.38;1.17;;;;;;;8.10;93.04;99264.59;4934757;29;20047;-75
2023/12/25 00:50:20;;;;;;;5.15;1.00;;;;;;;8.14;92.64;99262.47;4934099;29;20044;-75
2023/12/25 00:52:47;;;;;;;4.07;1.63;;;;;;;8.16;92.75;99262.31;4934813;29;21516;-75
2023/12/25 00:55:13;;;;;;;7.70;1.10;;;;;;;8.11;92.76;99269.00;4915960;29;20119;-76
2023/12/25 00:57:40;;;;;;;13.05;1.27;;;;;;;8.17;92.54;99259.44;4915762;29;20044;-75
2023/12/25 01:00:07;;;;;;;6.45;1.20;;;;;;;8.19;92.12;99259.28;4915636;29;20152;-75
2023/12/25 01:02:34;;;;;;;9.43;1.65;;;;;;;8.19;92.38;99260.13;4899004;29;20052;-75
2023/12/25 01:05:00;;;;;;;8.30;1.40;;;;;;;8.24;92.36;99265.91;4915426;29;20059;-75
2023/12/25 01:07:28;;;;;;;6.15;1.13;;;;;;;8.26;92.09;99269.31;4915153;29;20548;-75
2023/12/25 01:09:54;;;;;;;4.40;1.00;;;;;;;8.20;92.84;99274.47;4916009;29;20060;-75
2023/12/25 01:12:21;;;;;;;12.07;1.27;;;;;;;8.26;92.88;99279.25;4915785;29;20108;-76
2023/12/25 01:14:47;;;;;;;8.75;1.40;;;;;;;8.29;92.75;99274.38;4915277;29;20060;-75
2023/12/25 01:17:14;;;;;;;9.73;1.40;;;;;;;8.28;92.95;99288.06;4915483;29;20094;-74
2023/12/25 01:19:41;;;;;;;9.45;1.92;;;;;;;8.33;93.35;99288.44;4915343;29;20058;-74
2023/12/25 01:22:07;;;;;;;7.45;1.40;;;;;;;8.31;93.52;99293.16;4915422;29;20052;-74
2023/12/25 01:24:34;;;;;;;10.15;1.92;;;;;;;8.35;93.63;99300.78;4915490;29;20048;-74
2023/12/25 01:27:00;;;;;;;11.40;1.52;;;;;;;8.32;93.99;99292.16;4915090;29;20052;-74
2023/12/25 01:29:27;;;;;;;5.95;1.23;;;;;;;8.30;94.16;99299.53;4915287;29;20075;-72
2023/12/25 01:31:54;;;;;;;10.50;2.15;;;;;;;8.35;93.92;99299.94;4915934;29;20501;-74
2023/12/25 01:34:20;;;;;;;7.60;1.65;;;;;;;8.36;94.02;99296.22;4915411;29;20052;-75
2023/12/25 01:36:47;;;;;;;10.15;1.50;;;;;;;8.26;94.76;99290.91;4915481;29;23270;-74
2023/12/25 01:39:14;;;;;;;7.85;1.65;;;;;;;8.25;95.00;99278.41;4898209;29;20477;-74
2023/12/25 01:41:41;;;;;;;7.30;1.30;;;;;;;8.18;94.42;99276.50;4915544;29;20130;-74
2023/12/25 01:44:08;;;;;;;4.85;1.20;;;;;;;8.27;94.34;99281.81;4915276;29;20056;-74
2023/12/25 01:46:46;;;;;;;7.50;1.15;;;;;;;8.19;95.17;99278.19;4914708;29;20051;-74
2023/12/25 01:49:13;;;;;;;10.57;1.80;;;;;;;7.95;95.43;99279.69;4914987;29;20064;-74
2023/12/25 01:51:40;;;;;;;5.28;1.10;;;;;;;7.95;95.79;99287.78;4898738;29;20052;-74
2023/12/25 01:54:07;;;;;;;8.77;1.33;;;;;;;7.98;95.98;99286.59;4924754;29;20055;-75
2023/12/25 01:56:34;;;;;;;7.75;1.40;;;;;;;7.98;95.80;99290.16;4934577;29;20052;-75
2023/12/25 01:59:03;;;;;;;11.43;1.95;;;;;;;7.88;95.70;99302.03;4934208;29;20056;-74
2023/12/25 02:01:30;;;;;;;7.78;1.77;;;;;;;7.98;95.91;99287.47;4933624;29;20103;-75
2023/12/25 02:03:56;;;;;;;7.47;1.52;;;;;;;7.91;96.00;99291.75;4934663;29;20039;-75
2023/12/25 02:10:10;;;;;;;9.30;2.40;;;;;;;7.98;95.15;99292.00;4931265;29;20551;-75
2023/12/25 02:12:38;;;;;;;8.77;1.60;;;;;;;8.05;95.01;99288.53;4932812;29;20095;-75
2023/12/25 02:15:05;;;;;;;6.20;1.30;;;;;;;7.96;94.83;99286.75;4932083;29;20118;-75
2023/12/25 02:17:32;;;;;;;14.05;2.10;;;;;;;8.10;94.46;99291.59;4932905;29;20091;-75
2023/12/25 02:19:59;;;;;;;8.13;2.17;;;;;;;8.10;94.36;99302.41;4932974;29;20476;-75
2023/12/25 02:22:27;;;;;;;11.25;2.03;;;;;;;8.17;94.15;99294.53;4932779;29;20059;-75
2023/12/25 02:25:05;;;;;;;9.50;2.30;;;;;;;8.21;94.30;99292.38;4933418;29;20054;-75
2023/12/25 02:27:32;;;;;;;12.52;1.63;;;;;;;8.32;93.78;99294.84;4931592;29;20560;-75
2023/12/25 02:29:58;;;;;;;12.85;1.88;;;;;;;8.25;94.40;99299.19;4931695;29;20048;-75
2023/12/25 02:32:29;;;;;;;7.03;1.77;;;;;;;8.32;94.53;99284.06;4933066;29;20055;-74
2023/12/25 02:34:55;;;;;;;6.80;1.65;;;;;;;8.42;92.90;99306.44;4932778;29;20214;-75
2023/12/25 02:37:22;;;;;;;9.10;1.45;;;;;;;8.47;92.53;99304.09;4933622;29;20505;-77
2023/12/25 02:39:49;;;;;;;9.07;1.63;;;;;;;8.52;92.21;99293.66;4932378;29;20111;-75
2023/12/25 02:42:16;;;;;;;9.57;1.70;;;;;;;8.52;92.54;99296.38;4927566;29;20177;-75
2023/12/25 02:44:43;;;;;;;10.23;2.10;;;;;;;8.55;92.38;99306.84;4933054;29;20095;-76
2023/12/25 02:47:10;;;;;;;7.90;1.85;;;;;;;8.53;92.58;99308.88;4932020;29;20062;-75
2023/12/25 02:49:36;;;;;;;8.52;1.88;;;;;;;8.58;92.45;99305.69;4931973;29;20464;-75
2023/12/25 02:52:03;;;;;;;7.53;1.48;;;;;;;8.50;93.15;99311.91;4932108;29;20122;-75
2023/12/25 02:54:30;;;;;;;8.23;1.75;;;;;;;8.53;93.24;99300.75;4919826;29;20111;-75
2023/12/25 02:56:57;;;;;;;6.13;1.50;;;;;;;8.55;93.26;99303.31;4913082;29;20051;-74
2023/12/25 02:59:23;;;;;;;4.97;1.60;;;;;;;8.49;93.85;99312.88;4914271;29;20465;-75
2023/12/25 03:01:50;;;;;;;5.32;1.40;;;;;;;8.58;93.74;99320.03;4913590;29;20048;-74
2023/12/25 03:04:16;;;;;;;13.75;1.75;;;;;;;8.58;94.13;99322.75;4912970;29;20573;-75
2023/12/25 03:06:43;;;;;;;13.77;2.20;;;;;;;8.56;94.45;99319.34;4913168;29;20127;-74
2023/12/25 03:09:09;;;;;;;11.05;2.00;;;;;;;8.56;94.53;99295.03;4895989;29;20142;-74
2023/12/25 03:11:36;;;;;;;11.90;1.67;;;;;;;8.58;94.53;99314.63;4912746;29;20115;-73
2023/12/25 03:14:03;;;;;;;7.32;1.75;;;;;;;8.58;94.87;99330.00;4912580;29;20143;-73
2023/12/25 03:16:30;;;;;;;7.40;1.50;;;;;;;8.59;95.10;99324.47;4913271;29;20095;-73
2023/12/25 03:18:56;;;;;;;12.93;1.70;;;;;;;8.59;94.88;99324.47;4912194;29;20111;-72
2023/12/25 03:21:23;;;;;;;12.73;2.40;;;;;;;8.57;95.23;99320.22;4913554;29;20056;-73
2023/12/25 03:23:50;;;;;;;5.82;1.33;;;;;;;8.53;94.53;99322.38;4913312;29;20048;-73
2023/12/25 03:26:16;;;;;;;5.43;1.40;;;;;;;8.49;93.56;99326.38;4913382;29;20515;-73
2023/12/25 03:28:43;;;;;;;6.25;1.30;;;;;;;8.49;94.11;99317.44;4913035;29;20071;-72
2023/12/25 03:31:10;;;;;;;7.10;1.30;;;;;;;8.40;94.03;99330.91;4917002;29;20517;-72
2023/12/25 03:33:37;;;;;;;5.88;1.40;;;;;;;8.31;94.58;99322.88;4916028;29;20048;-72
2023/12/25 03:36:05;;;;;;;4.90;1.38;;;;;;;8.26;94.33;99327.88;4916654;29;20470;-73
2023/12/25 03:38:31;;;;;;;5.53;1.20;;;;;;;8.25;94.20;99320.78;4917051;29;20489;-73
2023/12/25 03:40:58;;;;;;;8.73;1.35;;;;;;;8.26;94.02;99325.19;4916899;29;20572;-73
2023/12/25 03:43:25;;;;;;;2.85;0.93;;;;;;;8.20;94.17;99331.19;4917010;29;20092;-72
2023/12/25 03:45:52;;;;;;;10.00;1.38;;;;;;;8.18;94.09;99328.66;4917218;29;20446;-74
2023/12/25 03:48:20;;;;;;;9.82;1.23;;;;;;;8.18;94.20;99317.84;4916458;29;20054;-73
2023/12/25 03:50:47;;;;;;;4.78;1.33;;;;;;;8.17;93.91;99324.25;4916688;29;20054;-73
2023/12/25 03:53:14;;;;;;;8.00;1.50;;;;;;;8.19;93.54;99321.41;4915590;29;20419;-74
2023/12/25 03:55:40;;;;;;;6.13;1.30;;;;;;;8.15;93.29;99337.06;4915971;29;20112;-73
2023/12/25 03:58:07;;;;;;;8.25;1.38;;;;;;;8.16;93.75;99332.53;4916024;29;20059;-74
2023/12/25 04:00:33;;;;;;;5.47;1.33;;;;;;;8.11;94.23;99336.50;4916880;29;20078;-74
2023/12/25 04:03:00;;;;;;;9.15;1.65;;;;;;;8.17;93.77;99323.41;4916357;29;20083;-73
2023/12/25 04:05:27;;;;;;;9.07;1.73;;;;;;;8.15;94.17;99320.88;4915968;29;20122;-73
2023/12/25 04:07:54;;;;;;;10.32;1.50;;;;;;;8.18;94.35;99331.34;4916872;29;20524;-74
2023/12/25 04:10:21;;;;;;;9.18;1.70;;;;;;;8.17;94.75;99328.81;4916686;29;20070;-74
2023/12/25 04:12:48;;;;;;;10.55;1.45;;;;;;;8.19;94.47;99321.41;4915924;29;20048;-75
2023/12/25 04:15:14;;;;;;;11.13;1.60;;;;;;;8.24;93.84;99308.28;4916576;29;20060;-72
2023/12/25 04:17:42;;;;;;;5.03;1.30;;;;;;;8.27;94.38;99310.69;4915521;29;20092;-72
2023/12/25 04:20:10;;;;;;;10.60;1.60;;;;;;;8.24;94.61;99316.41;4899346;29;20509;-73
2023/12/25 04:22:37;;;;;;;6.13;1.45;;;;;;;8.29;93.98;99311.34;4915629;29;20048;-72
2023/12/25 04:25:04;;;;;;;5.05;1.33;;;;;;;8.29;94.02;99312.22;4916149;29;20469;-73
2023/12/25 04:27:31;;;;;;;6.80;1.40;;;;;;;8.30;93.85;99313.91;4916061;29;20462;-74
2023/12/25 04:29:57;;;;;;;8.15;1.85;;;;;;;8.28;93.82;99317.78;4915531;29;20135;-74
2023/12/25 04:32:24;;;;;;;6.38;1.55;;;;;;;8.28;93.72;99306.97;4916213;29;20516;-74
2023/12/25 04:34:51;;;;;;;11.63;1.50;;;;;;;8.27;93.99;99316.06;4899450;29;20048;-74
2023/12/25 04:37:20;;;;;;;6.43;1.73;;;;;;;8.26;94.33;99330.59;4915576;29;20390;-74
2023/12/25 04:39:47;;;;;;;11.32;1.60;;;;;;;8.28;93.71;99323.16;4915350;29;20470;-74
2023/12/25 04:42:14;;;;;;;6.32;1.40;;;;;;;8.36;92.95;99317.84;4914437;29;20052;-74
2023/12/25 04:44:41;;;;;;;12.73;1.60;;;;;;;8.37;92.81;99308.72;4915456;29;20044;-74
2023/12/25 04:47:07;;;;;;;6.57;1.65;;;;;;;8.34;92.41;99319.88;4915489;29;20116;-74
2023/12/25 04:49:34;;;;;;;6.53;1.45;;;;;;;8.38;91.99;99311.28;4915189;29;20068;-73
2023/12/25 04:52:01;;;;;;;2.53;1.00;;;;;;;8.42;91.20;99301.03;4915330;29;20056;-75
2023/12/25 04:54:28;;;;;;;6.90;1.25;;;;;;;8.42;91.23;99312.69;4927059;29;20059;-77
2023/12/25 04:56:57;;;;;;;6.72;1.00;;;;;;;8.35;91.20;99316.16;4934054;29;20099;-75
2023/12/25 04:59:24;;;;;;;10.38;1.42;;;;;;;8.42;90.77;99306.44;4934842;29;20058;-75
2023/12/25 05:01:53;;;;;;;6.00;1.10;;;;;;;8.38;91.10;99305.03;4934584;29;20678;-75
2023/12/25 05:04:20;;;;;;;7.15;1.80;;;;;;;8.37;90.67;99309.56;4931215;29;20090;-75
2023/12/25 05:06:46;;;;;;;3.67;1.20;;;;;;;8.38;91.39;99303.16;4933954;29;20497;-75
2023/12/25 05:09:13;;;;;;;4.15;1.13;;;;;;;8.42;91.22;99306.44;4934232;29;20405;-75
2023/12/25 05:11:40;;;;;;;8.98;1.40;;;;;;;8.42;91.41;99307.28;4934125;29;20055;-75
2023/12/25 05:14:06;;;;;;;9.93;1.58;;;;;;;8.46;91.48;99310.50;4933689;29;20054;-75
2023/12/25 05:16:33;;;;;;;3.72;1.15;;;;;;;8.53;90.73;99310.72;4933606;29;20051;-75
2023/12/25 05:18:59;;;;;;;10.90;1.67;;;;;;;8.48;91.20;99316.59;4934163;29;20110;-76
2023/12/25 05:21:26;;;;;;;4.22;1.13;;;;;;;8.43;91.72;99317.06;4933996;29;20051;-74
2023/12/25 05:23:53;;;;;;;6.50;1.75;;;;;;;8.42;92.18;99314.53;4934869;29;20043;-75
2023/12/25 05:26:21;;;;;;;7.95;1.63;;;;;;;8.40;92.28;99330.06;4933775;29;20040;-75
2023/12/25 05:28:48;;;;;;;7.22;1.30;;;;;;;8.37;92.46;99331.19;4933579;29;20047;-74
2023/12/25 05:31:14;;;;;;;9.23;1.48;;;;;;;8.48;91.74;99318.44;4933833;29;20048;-74
2023/12/25 05:33:41;;;;;;;8.60;1.50;;;;;;;8.56;90.36;99329.31;4933916;29;20472;-74
2023/12/25 05:36:08;;;;;;;6.03;1.92;;;;;;;8.52;90.40;99326.09;4933962;29;20500;-75
2023/12/25 05:38:34;;;;;;;13.57;2.65;;;;;;;8.54;90.79;99321.38;4933296;29;20051;-75
2023/12/25 05:41:01;;;;;;;7.32;2.13;;;;;;;8.57;90.17;99318.34;4933830;29;20475;-74
2023/12/25 05:43:27;;;;;;;10.65;2.70;;;;;;;8.66;88.55;99324.66;4917030;29;20449;-74
2023/12/25 05:45:54;;;;;;;6.80;1.55;;;;;;;8.55;89.06;99328.47;4916640;29;20118;-74
2023/12/25 05:48:21;;;;;;;7.88;1.35;;;;;;;8.58;88.49;99317.34;4932958;29;20047;-74
2023/12/25 05:50:48;;;;;;;7.30;1.83;;;;;;;8.65;87.94;99329.22;4932964;29;20083;-74
2023/12/25 05:53:15;;;;;;;7.45;1.80;;;;;;;8.58;88.77;99325.44;4932586;29;20107;-75
2023/12/25 05:55:41;;;;;;;4.75;1.58;;;;;;;8.61;87.93;99338.66;4932647;29;20044;-75
2023/12/25 05:58:08;;;;;;;7.90;1.77;;;;;;;8.64;86.82;99343.75;4933297;29;20086;-75
2023/12/25 06:00:34;;;;;;;3.60;1.10;;;;;;;8.66;87.27;99336.31;4932805;29;20048;-75
2023/12/25 06:03:01;;;;;;;5.93;1.08;;;;;;;8.73;86.22;99335.72;4915785;29;20047;-75
2023/12/25 06:05:28;;;;;;;6.88;1.52;;;;;;;8.67;85.93;99327.22;4933196;29;20043;-76
2023/12/25 06:07:55;;;;;;;5.97;1.58;;;;;;;8.63;86.68;99319.59;4932978;29;20052;-74
2023/12/25 06:10:22;;;;;;;5.72;1.50;;;;;;;8.66;85.91;99328.22;4933093;29;20073;-75
2023/12/25 06:12:49;;;;;;;7.03;1.60;;;;;;;8.69;85.80;99314.41;4932426;29;20053;-76
2023/12/25 06:15:15;;;;;;;4.45;1.20;;;;;;;8.79;84.59;99337.78;4932596;29;20079;-75
2023/12/25 06:17:42;;;;;;;8.15;1.85;;;;;;;8.74;85.55;99337.41;4933769;29;20047;-76
2023/12/25 06:20:09;;;;;;;6.45;1.02;;;;;;;8.80;84.66;99336.78;4933066;29;20051;-76
2023/12/25 06:22:44;;;;;;;7.15;1.77;;;;;;;8.80;84.62;99337.63;4933006;29;20052;-76
2023/12/25 06:25:11;;;;;;;4.55;1.15;;;;;;;8.75;85.49;99339.09;4933328;29;20453;-76
2023/12/25 06:27:38;;;;;;;4.90;1.27;;;;;;;8.71;85.39;99342.13;4932874;29;20047;-76
2023/12/25 06:30:20;;;;;;;7.68;1.33;;;;;;;8.69;85.91;99357.66;4933496;29;20047;-77
2023/12/25 06:32:48;;;;;;;14.48;1.80;;;;;;;8.80;84.27;99364.66;4933312;29;20049;-77
2023/12/25 06:35:15;;;;;;;9.32;2.10;;;;;;;8.80;85.20;99359.25;4932542;29;20061;-77
2023/12/25 06:37:41;;;;;;;6.43;1.55;;;;;;;8.82;84.49;99361.81;4932719;29;20044;-77
2023/12/25 06:40:08;;;;;;;8.32;1.95;;;;;;;8.84;83.59;99368.75;4933185;29;20552;-77
2023/12/25 06:42:35;;;;;;;11.52;1.48;;;;;;;8.74;85.15;99375.25;4933173;29;20056;-77
2023/12/25 06:45:01;;;;;;;8.02;1.60;;;;;;;8.80;83.94;99375.47;4932540;29;20523;-76
2023/12/25 06:47:28;;;;;;;5.05;1.13;;;;;;;8.78;83.63;99382.91;4933362;29;20135;-76
2023/12/25 06:49:55;;;;;;;14.80;1.45;;;;;;;8.86;82.91;99387.50;4933072;29;20047;-77
2023/12/25 06:52:21;;;;;;;8.63;1.63;;;;;;;8.84;82.70;99392.22;4932593;29;20047;-77
2023/12/25 06:54:48;;;;;;;6.03;0.93;;;;;;;8.89;81.52;99384.50;4916555;29;20052;-77
2023/12/25 06:57:15;;;;;;;6.45;1.00;;;;;;;8.91;81.80;99404.13;4913224;29;20048;-75
2023/12/25 06:59:43;;;;;;;9.52;1.73;;;;;;;8.96;80.60;99413.47;4913160;29;20497;-77
2023/12/25 07:02:10;;;;;;;6.80;1.23;;;;;;;8.97;81.66;99404.34;4913335;29;20075;-76
2023/12/25 07:04:38;;;;;;;7.43;1.40;;;;;;;8.91;80.84;99420.34;4912708;29;20454;-75
2023/12/25 07:07:04;;;;;;;8.88;1.70;;;;;;;8.95;81.08;99416.31;4913064;29;20052;-76
2023/12/25 07:09:31;;;;;;;10.07;1.80;;;;;;;8.96;80.61;99418.03;4913489;29;20084;-76
2023/12/25 07:11:58;;;;;;;7.82;1.65;;;;;;;8.85;81.92;99424.50;4913312;29;20103;-75
2023/12/25 07:14:24;;;;;;;12.70;1.83;;;;;;;8.95;80.33;99421.72;4914368;29;20059;-76
2023/12/25 07:16:51;;;;;;;10.38;1.67;;;;;;;8.96;80.65;99423.44;4913230;29;20174;-76
2023/12/25 07:19:18;;;;;;;6.03;1.35;;;;;;;8.97;80.20;99442.22;4913360;29;20075;-75
2023/12/25 07:21:46;;;;;;;7.82;1.50;;;;;;;8.95;79.98;99437.94;4913237;29;20044;-75
2023/12/25 07:24:12;;;;;;;7.80;1.45;;;;;;;8.95;79.64;99454.16;4913312;29;20068;-75
2023/12/25 07:26:39;;;;;;;5.05;1.35;;;;;;;8.98;79.62;99440.34;4912736;29;20048;-76
2023/12/25 07:29:05;;;;;;;6.45;1.60;;;;;;;9.02;78.43;99430.06;4912635;29;20054;-76
2023/12/25 07:31:33;;;;;;;12.40;1.67;;;;;;;9.03;78.99;99451.53;4913272;29;20048;-76
2023/12/25 07:33:59;;;;;;;8.77;1.73;;;;;;;9.04;78.11;99460.50;4913562;29;20112;-75
2023/12/25 07:36:27;;;;;;;8.80;1.52;;;;;;;9.02;79.34;99460.66;4914190;29;20071;-76
2023/12/25 07:38:53;;;;;;;10.45;1.38;;;;;;;9.02;78.87;99460.66;4907919;29;20516;-76
2023/12/25 07:41:23;;;;;;;9.05;1.60;;;;;;;9.02;78.48;99466.06;4913309;29;20055;-76
2023/12/25 07:43:49;;;;;;;10.25;1.52;;;;;;;9.04;78.43;99464.06;4912376;29;20049;-77
2023/12/25 07:46:17;;;;;;;7.05;1.45;;;;;;;9.05;77.45;99468.47;4927657;29;20402;-76
2023/12/25 07:48:43;;;;;;;12.30;1.40;;;;;;;9.04;78.43;99479.44;4931680;29;20489;-76
2023/12/25 07:51:10;;;;;;;6.70;1.30;;;;;;;9.03;77.79;99486.69;4931145;29;20052;-76
2023/12/25 07:53:37;;;;;;;10.38;1.90;;;;;;;9.06;77.33;99488.25;4932035;29;20047;-76
2023/12/25 07:56:04;;;;;;;10.30;1.80;;;;;;;9.06;76.98;99499.09;4932359;29;20088;-77
2023/12/25 07:58:31;;;;;;;7.13;1.60;;;;;;;9.06;77.62;99499.94;4931951;29;20059;-75
2023/12/25 08:00:57;;;;;;;5.07;1.23;;;;;;;9.02;78.10;99506.63;4930871;29;20047;-77
2023/12/25 08:03:24;;;;;;;7.03;1.80;;;;;;;9.07;77.30;99523.28;4932797;29;20099;-77
2023/12/25 08:05:51;;;;;;;7.75;1.55;;;;;;;8.90;79.87;99524.13;4931544;29;20047;-77
2023/12/25 08:08:18;;;;;;;6.95;1.60;;;;;;;9.04;78.20;99522.72;4914461;29;20123;-77
2023/12/25 08:10:45;;;;;;;9.18;1.80;;;;;;;8.93;79.22;99526.50;4930802;29;20122;-78
2023/12/25 08:13:15;;;;;;;8.30;1.20;;;;;;;9.06;77.36;99537.81;4931081;29;20509;-75
2023/12/25 08:15:41;;;;;;;7.78;1.50;;;;;;;9.02;77.62;99547.22;4932208;29;20433;-76
2023/12/25 08:18:08;;;;;;;7.68;1.45;;;;;;;9.05;77.65;99555.03;4935258;29;20126;-76
2023/12/25 08:20:34;;;;;;;8.75;1.50;;;;;;;9.07;77.27;99550.31;4934697;29;20047;-76
2023/12/25 08:23:01;;;;;;;8.68;1.35;;;;;;;9.11;76.58;99549.00;4934189;29;20512;-75
2023/12/25 08:25:28;;;;;;;6.13;1.40;;;;;;;9.01;77.53;99561.75;4933749;29;20476;-76
2023/12/25 08:27:55;;;;;;;8.10;1.40;;;;;;;9.06;76.42;99537.81;4934271;29;20051;-77
2023/12/25 08:30:22;;;;;;;5.50;1.17;;;;;;;9.12;76.88;99564.22;4934272;29;20055;-78
2023/12/25 08:32:48;;;;;;;10.70;1.48;;;;;;;9.12;76.56;99566.06;4934214;29;20147;-76
2023/12/25 08:35:18;;;;;;;7.38;1.38;;;;;;;9.05;77.16;99575.81;4934427;29;20051;-77
2023/12/25 08:37:44;;;;;;;9.93;1.80;;;;;;;8.96;78.70;99566.78;4934480;29;20047;-77
2023/12/25 08:40:11;;;;;;;5.70;1.27;;;;;;;9.03;76.88;99565.13;4934335;29;20606;-76
2023/12/25 08:42:38;;;;;;;6.72;1.25;;;;;;;9.01;76.45;99569.84;4917320;29;20077;-77
2023/12/25 08:45:07;;;;;;;6.85;1.50;;;;;;;9.05;76.15;99573.97;4934289;29;20055;-77
2023/12/25 08:47:34;;;;;;;4.80;1.23;;;;;;;9.13;75.73;99579.44;4933166;29;20119;-76
2023/12/25 08:50:01;;;;;;;5.47;1.20;;;;;;;9.14;75.53;99589.25;4916544;29;20142;-78
2023/12/25 08:52:28;;;;;;;6.28;1.38;;;;;;;9.16;75.60;99579.16;4933391;29;20051;-78
2023/12/25 08:54:56;;;;;;;7.88;1.73;;;;;;;9.15;76.48;99590.97;4933798;29;20362;-78
2023/12/25 08:57:23;;;;;;;8.05;1.40;;;;;;;9.19;75.25;99597.78;4934222;29;20055;-79
2023/12/25 08:59:50;;;;;;;6.90;1.40;;;;;;;9.20;75.20;99591.34;4933415;29;20440;-78
2023/12/25 09:02:19;;;;;;;6.03;1.42;;;;;;;9.23;75.23;99610.00;4933493;29;20048;-78
2023/12/25 09:04:48;;;;;;;8.68;1.33;;;;;;;9.28;74.13;99623.94;4934094;29;20056;-78
2023/12/25 09:07:16;;;;;;;8.18;1.52;;;;;;;9.27;73.68;99630.34;4934050;29;20058;-78
2023/12/25 09:09:42;;;;;;;8.43;1.50;;;;;;;9.27;73.97;99614.13;4934663;29;20051;-77
2023/12/25 09:12:09;;;;;;;5.97;1.45;;;;;;;9.30;75.76;99633.75;4918087;29;20052;-77
2023/12/25 09:14:36;;;;;;;9.40;1.35;;;;;;;9.30;74.85;99620.22;4934325;29;20051;-76
2023/12/25 09:17:03;;;;;;;8.20;1.70;;;;;;;9.26;74.00;99635.94;4933755;29;20058;-75
2023/12/25 09:19:33;;;;;;;11.68;1.83;;;;;;;9.27;74.26;99633.06;4933247;29;20054;-76
2023/12/25 09:22:00;;;;;;;7.45;1.50;;;;;;;9.27;72.87;99645.75;4934240;29;20424;-76
2023/12/25 09:24:27;;;;;;;11.23;1.98;;;;;;;9.25;73.84;99635.09;4935013;29;20504;-77
2023/12/25 09:26:53;;;;;;;8.38;2.13;;;;;;;9.24;74.37;99644.22;4916543;29;20055;-78
2023/12/25 09:29:20;;;;;;;12.40;1.83;;;;;;;9.25;74.26;99628.81;4917453;29;20047;-77
2023/12/25 09:31:47;;;;;;;14.82;3.40;;;;;;;9.27;75.07;99630.34;4899996;29;20394;-76
2023/12/25 09:34:13;;;;;;;10.35;3.00;;;;;;;9.26;74.05;99634.06;4934202;29;20421;-76
2023/12/25 09:36:40;;;;;;;8.38;1.58;;;;;;;9.19;74.72;99623.97;4918452;29;20058;-76
2023/12/25 09:39:07;;;;;;;16.85;2.35;;;;;;;9.24;76.08;99638.78;4917251;29;20048;-75
2023/12/25 09:41:35;;;;;;;9.18;1.95;;;;;;;9.26;76.13;99642.19;4933046;29;20074;-76
2023/12/25 09:44:02;;;;;;;7.15;1.52;;;;;;;9.41;75.59;99639.78;4932910;29;20461;-76
2023/12/25 09:46:31;;;;;;;7.95;1.95;;;;;;;9.45;75.23;99638.47;4930987;29;20051;-75
2023/12/25 09:48:58;;;;;;;7.10;1.65;;;;;;;9.51;74.39;99623.47;4934067;29;20073;-75
2023/12/25 09:51:27;;;;;;;5.65;1.60;;;;;;;9.62;75.72;99630.53;4933550;29;20070;-75
2023/12/25 09:53:54;;;;;;;6.28;2.30;;;;;;;9.80;74.14;99634.91;4926098;29;20572;-78
2023/12/25 09:56:23;;;;;;;9.82;2.58;;;;;;;10.05;72.28;99637.78;4896425;29;20052;-75
2023/12/25 09:58:53;;;;;;;15.20;1.95;;;;;;;10.39;71.88;99635.97;4881071;29;20508;-78
2023/12/25 10:01:23;;;;;;;10.73;2.00;;;;;;;10.79;70.25;99631.75;4897162;29;20103;-76
2023/12/25 10:03:50;;;;;;;9.15;2.13;;;;;;;11.06;67.85;99646.13;4914729;29;20068;-75
2023/12/25 10:06:20;;;;;;;6.40;1.48;;;;;;;11.19;67.80;99646.47;4914585;29;20103;-77
2023/12/25 10:08:47;;;;;;;7.20;1.67;;;;;;;10.93;67.47;99652.03;4914585;29;20060;-74
2023/12/25 10:11:14;;;;;;;7.05;1.80;;;;;;;10.57;68.79;99654.03;4914629;29;20386;-76
2023/12/25 10:13:43;;;;;;;7.25;2.25;;;;;;;10.38;69.75;99649.69;4914687;29;20048;-75
2023/12/25 10:16:09;;;;;;;4.47;1.38;;;;;;;10.20;69.87;99652.47;4914801;29;20493;-75
2023/12/25 10:18:38;;;;;;;9.63;2.22;;;;;;;10.17;69.72;99625.69;4914960;29;20640;-76
2023/12/25 10:21:08;;;;;;;7.43;1.67;;;;;;;10.08;71.09;99654.59;4915008;29;20056;-76
2023/12/25 10:23:36;;;;;;;11.73;1.70;;;;;;;10.23;69.34;99654.84;4914757;29;20054;-77
2023/12/25 10:26:04;;;;;;;12.32;2.30;;;;;;;10.25;68.86;99652.81;4915112;29;20052;-76
2023/12/25 10:28:33;;;;;;;12.77;1.90;;;;;;;10.13;68.95;99663.06;4915358;29;20048;-75
2023/12/25 10:31:02;;;;;;;8.57;1.88;;;;;;;10.08;68.20;99673.56;4915075;29;20425;-76
2023/12/25 10:33:34;;;;;;;8.57;1.83;;;;;;;9.95;69.61;99669.53;4914407;29;20051;-75
2023/12/25 10:36:10;;;;;;;10.20;1.67;;;;;;;9.92;70.68;99670.72;4913891;29;20051;-75
2023/12/25 10:38:42;;;;;;;7.40;1.65;;;;;;;9.96;69.20;99677.50;4913066;29;20048;-75
2023/12/25 10:41:27;;;;;;;16.80;2.45;;;;;;;9.91;70.65;99703.38;4913446;29;20076;-75
2023/12/25 10:43:58;;;;;;;7.95;1.60;;;;;;;9.85;69.84;99694.00;4914322;29;20086;-75
2023/12/25 10:46:36;;;;;;;8.85;1.92;;;;;;;9.80;69.86;99702.63;4913603;29;20497;-76
2023/12/25 10:49:05;;;;;;;12.70;1.70;;;;;;;9.93;69.48;99693.22;4913772;29;20063;-75
2023/12/25 10:51:41;;;;;;;12.57;3.33;;;;;;;9.99;69.58;99696.16;4913201;29;20051;-75
2023/12/25 10:54:10;;;;;;;15.00;3.40;;;;;;;10.09;68.40;99682.53;4907041;29;20052;-75
2023/12/25 10:56:45;;;;;;;8.35;1.35;;;;;;;10.14;67.90;99693.72;4933889;29;20043;-76
2023/12/25 10:59:16;;;;;;;5.82;1.85;;;;;;;10.09;69.27;99687.94;4932971;29;20052;-75
2023/12/25 11:01:45;;;;;;;8.85;1.77;;;;;;;10.16;68.62;99683.56;4915765;29;20421;-75
2023/12/25 11:04:15;;;;;;;15.98;1.88;;;;;;;10.19;67.60;99686.00;4932160;29;20059;-75
2023/12/25 11:06:45;;;;;;;6.95;2.00;;;;;;;10.18;67.78;99699.69;4931805;29;20516;-77
2023/12/25 11:09:14;;;;;;;8.05;2.08;;;;;;;10.18;67.32;99692.44;4932306;29;20062;-77
2023/12/25 11:11:42;;;;;;;6.45;1.98;;;;;;;10.25;66.92;99698.03;4932027;29;20051;-76
2023/12/25 11:14:08;;;;;;;13.20;2.17;;;;;;;10.25;67.96;99700.75;4931705;29;20069;-76
2023/12/25 11:16:35;;;;;;;7.22;1.40;;;;;;;10.38;66.71;99704.75;4931833;29;20103;-77
2023/12/25 11:19:03;;;;;;;7.03;1.67;;;;;;;10.28;68.33;99704.00;4932149;29;20494;-77
2023/12/25 11:21:33;;;;;;;9.57;1.83;;;;;;;10.33;67.27;99715.22;4931675;29;20134;-76
2023/12/25 11:24:02;;;;;;;9.15;2.13;;;;;;;10.36;68.87;99716.78;4931399;29;20060;-76
2023/12/25 11:26:30;;;;;;;5.13;1.90;;;;;;;10.38;69.18;99718.31;4914896;29;20055;-75
2023/12/25 11:29:05;;;;;;;9.30;1.58;;;;;;;10.31;69.10;99725.38;4932540;29;20540;-76
2023/12/25 11:31:46;;;;;;;11.35;2.10;;;;;;;10.24;69.95;99718.88;4931478;29;20481;-77
2023/12/25 11:34:20;;;;;;;6.20;1.75;;;;;;;10.23;68.37;99716.31;4932194;29;20052;-77
2023/12/25 11:36:51;;;;;;;8.30;1.85;;;;;;;10.24;69.95;99732.41;4931625;29;20055;-77
2023/12/25 11:39:18;;;;;;;10.27;1.87;;;;;;;10.34;68.49;99735.03;4932562;29;20127;-77
2023/12/25 11:41:46;;;;;;;9.98;1.75;;;;;;;10.58;67.45;99726.22;4931604;29;20343;-78
2023/12/25 11:44:18;;;;;;;11.18;2.20;;;;;;;10.73;67.75;99740.06;4915579;29;20615;-76